AUR206 EGJB-EGJA

Flight info

Callsign AUR206
Flight time 0h 14m
Altitude 7000
Route ALD
Aircraft TRIS/L-SDFGR/C

Departure

Time 2026-05-06 15:59
Airport Guernsey Airport (EGJB)

Arrival

Time 2026-05-06 16:13
Airport Alderney Airport (EGJA)
Time Latitude Longitude Altitude Speed Heading
2026-05-06 15:44 49.43303 -2.59342 337 ft 0 kts 177°
2026-05-06 15:52 49.43303 -2.59343 337 ft 0 kts 177°
2026-05-06 15:53 49.43303 -2.59342 337 ft 0 kts 177°
2026-05-06 15:53 49.43303 -2.59343 337 ft 0 kts 177°
2026-05-06 15:53 49.43300 -2.59361 336 ft 8 kts 295°
2026-05-06 15:54 49.43354 -2.59454 334 ft 15 kts 304°
2026-05-06 15:54 49.43361 -2.59631 337 ft 18 kts 269°
2026-05-06 15:54 49.43347 -2.59811 337 ft 16 kts 260°
2026-05-06 15:54 49.43341 -2.59966 337 ft 13 kts 263°
2026-05-06 15:55 49.43334 -2.60096 337 ft 12 kts 268°
2026-05-06 15:55 49.43333 -2.60239 337 ft 15 kts 271°
2026-05-06 15:55 49.43330 -2.60413 337 ft 17 kts 264°
2026-05-06 15:55 49.43325 -2.60597 337 ft 17 kts 269°
2026-05-06 15:56 49.43347 -2.60776 337 ft 17 kts 280°
2026-05-06 15:56 49.43366 -2.60952 337 ft 17 kts 267°
2026-05-06 15:56 49.43361 -2.61129 337 ft 17 kts 269°
2026-05-06 15:56 49.43379 -2.61295 336 ft 16 kts 313°
2026-05-06 15:57 49.43457 -2.61349 343 ft 10 kts 39°
2026-05-06 15:57 49.43466 -2.61309 343 ft 0 kts 88°
2026-05-06 15:58 49.43473 -2.61061 345 ft 60 kts 87°
2026-05-06 15:59 49.43487 -2.60218 537 ft 84 kts 89°
2026-05-06 15:59 49.43476 -2.59263 829 ft 96 kts 91°
2026-05-06 15:59 49.43506 -2.58231 1257 ft 97 kts 75°
2026-05-06 15:59 49.43942 -2.57416 1605 ft 103 kts 38°
2026-05-06 16:00 49.44504 -2.56787 1992 ft 100 kts 39°
2026-05-06 16:00 49.45071 -2.56119 2296 ft 101 kts 39°
2026-05-06 16:00 49.45606 -2.55418 2599 ft 104 kts 45°
2026-05-06 16:00 49.46078 -2.54592 2926 ft 101 kts 55°
2026-05-06 16:01 49.46504 -2.53698 3194 ft 106 kts 46°
2026-05-06 16:01 49.47136 -2.53127 3473 ft 108 kts 22°
2026-05-06 16:01 49.47870 -2.52839 3710 ft 111 kts 23°
2026-05-06 16:01 49.48480 -2.52056 3892 ft 119 kts 42°
2026-05-06 16:02 49.49119 -2.51196 4074 ft 125 kts 41°
2026-05-06 16:02 49.49784 -2.50286 4263 ft 130 kts 41°
2026-05-06 16:02 49.50464 -2.49349 4450 ft 133 kts 41°
2026-05-06 16:02 49.51155 -2.48386 4639 ft 135 kts 42°
2026-05-06 16:03 49.51852 -2.47409 4826 ft 136 kts 41°
2026-05-06 16:03 49.52553 -2.46417 5005 ft 137 kts 42°
2026-05-06 16:03 49.53256 -2.45417 5187 ft 138 kts 42°
2026-05-06 16:03 49.53957 -2.44417 5410 ft 135 kts 42°
2026-05-06 16:04 49.54625 -2.43456 5658 ft 132 kts 41°
2026-05-06 16:04 49.55282 -2.42500 5913 ft 128 kts 42°
2026-05-06 16:04 49.55920 -2.41560 6167 ft 126 kts 42°
2026-05-06 16:04 49.56541 -2.40637 6423 ft 123 kts 42°
2026-05-06 16:05 49.57145 -2.39733 6661 ft 119 kts 42°
2026-05-06 16:05 49.57732 -2.38846 6904 ft 117 kts 42°
2026-05-06 16:05 49.58314 -2.37958 7157 ft 118 kts 43°
2026-05-06 16:05 49.58894 -2.37054 7185 ft 117 kts 45°
2026-05-06 16:06 49.59426 -2.36150 7045 ft 115 kts 42°
2026-05-06 16:06 49.60065 -2.35472 6816 ft 109 kts 15°
2026-05-06 16:06 49.60811 -2.35444 6431 ft 108 kts 342°
2026-05-06 16:06 49.61518 -2.35731 6091 ft 108 kts 358°
2026-05-06 16:07 49.62270 -2.35569 5735 ft 106 kts 355°
2026-05-06 16:07 49.62953 -2.35675 5502 ft 93 kts 352°
2026-05-06 16:07 49.63587 -2.35765 5203 ft 90 kts 354°
2026-05-06 16:07 49.64218 -2.35837 4881 ft 90 kts 359°
2026-05-06 16:08 49.64840 -2.35729 4566 ft 89 kts
2026-05-06 16:08 49.65446 -2.35565 4241 ft 89 kts 11°
2026-05-06 16:08 49.66048 -2.35363 3930 ft 88 kts 14°
2026-05-06 16:08 49.66638 -2.35112 3625 ft 87 kts 17°
2026-05-06 16:09 49.67228 -2.34913 3314 ft 87 kts
2026-05-06 16:09 49.67822 -2.34773 3009 ft 86 kts 14°
2026-05-06 16:09 49.68379 -2.34436 2686 ft 85 kts 35°
2026-05-06 16:09 49.68809 -2.33828 2365 ft 84 kts 49°
2026-05-06 16:10 49.69136 -2.33108 2059 ft 81 kts 66°
2026-05-06 16:10 49.69284 -2.32244 1789 ft 83 kts 77°
2026-05-06 16:10 49.69401 -2.31377 1583 ft 82 kts 77°
2026-05-06 16:10 49.69511 -2.30515 1393 ft 84 kts 78°
2026-05-06 16:11 49.69624 -2.29630 1272 ft 82 kts 75°
2026-05-06 16:11 49.69723 -2.28743 1148 ft 84 kts 82°
2026-05-06 16:11 49.69771 -2.27824 1024 ft 87 kts 73°
2026-05-06 16:11 49.69952 -2.26952 989 ft 87 kts 68°
2026-05-06 16:12 49.70124 -2.26079 977 ft 75 kts 78°
2026-05-06 16:12 49.70189 -2.25338 850 ft 72 kts 78°
2026-05-06 16:12 49.70293 -2.24567 764 ft 69 kts 76°
2026-05-06 16:12 49.70393 -2.23842 564 ft 74 kts 78°
2026-05-06 16:13 49.70484 -2.23066 479 ft 73 kts 78°
2026-05-06 16:13 49.70571 -2.22325 337 ft 70 kts 78°
2026-05-06 16:13 49.70655 -2.21646 295 ft 55 kts 81°
2026-05-06 16:13 49.70701 -2.21249 293 ft 17 kts 78°
2026-05-06 16:14 49.70740 -2.21176 291 ft 6 kts 350°
2026-05-06 16:14 49.70775 -2.21180 291 ft 10 kts
2026-05-06 16:14 49.70854 -2.21188 292 ft 8 kts 295°
2026-05-06 16:14 49.70853 -2.21279 290 ft 13 kts 263°
2026-05-06 16:15 49.70844 -2.21402 290 ft 10 kts 250°
2026-05-06 16:15 49.70821 -2.21464 290 ft 5 kts 319°
2026-05-06 16:15 49.70834 -2.21466 291 ft 0 kts 41°
2026-05-06 16:15 49.70835 -2.21465 291 ft 0 kts 41°